Fluvius Axe — C6AZ6 — position and weather

sailwx.info

Track history (hours):
 
Tides and Currents Weather Stations Pressure Air Temp Water Temp Dewpoint Dewpoint Depression Visibility Wind Speed Wind Dir Waves Ship Positions

Fluvius Axe

Last reported at 2017-Oct-22 22:28 UTC. Time now 2017-Oct-22 22:56 UTC.
Position N 63°01' E 007°48'.

Length 88 m; draft 3.2 m.

Type: Cargo ship. MMSI: 311000201.

Date/timePositionNaut miles runAvg speedWind from/ knotsBaromVisibWave heightAir tempDewpointWater temp
2017-Oct-22 22:28N 63°01' E 007°48'0 0.0
2017-Oct-22 21:58N 63°01' E 007°48'0 0.0
2017-Oct-22 21:28N 63°01' E 007°48'0 0.0
2017-Oct-22 20:58N 63°01' E 007°48'0 0.1
2017-Oct-22 20:28N 63°01' E 007°48'0 0.0
2017-Oct-22 19:58N 63°01' E 007°48'0 0.2
2017-Oct-22 19:28N 63°01' E 007°48'0 0.0
2017-Oct-22 18:58N 63°01' E 007°48'0 0.0
2017-Oct-22 18:28N 63°01' E 007°48'0 0.0
2017-Oct-22 17:58N 63°01' E 007°48'0 0.0
2017-Oct-22 17:28N 63°01' E 007°48'0 0.0
2017-Oct-22 16:58N 63°01' E 007°48'0 0.0
2017-Oct-22 16:28N 63°01' E 007°48'0 0.0
2017-Oct-22 15:58N 63°01' E 007°48'0 0.0
2017-Oct-22 15:28N 63°01' E 007°48'0 0.0
2017-Oct-22 14:58N 63°01' E 007°48'0 0.0
2017-Oct-22 14:28N 63°01' E 007°48'0 0.2
2017-Oct-22 13:58N 63°01' E 007°48'1 2.9
2017-Oct-22 13:30N 63°02' E 007°51'5 9.6
2017-Oct-22 13:00N 63°06' E 007°55'5 9.6
2017-Oct-22 12:30N 63°10' E 007°48'5 9.2
2017-Oct-22 12:00N 63°14' E 007°43'5 9.7
2017-Oct-22 11:30N 63°14' E 007°32'510.7
2017-Oct-22 11:00N 63°12' E 007°22'611.0
2017-Oct-22 10:30N 63°10' E 007°10'611.0
2017-Oct-22 10:00N 63°07' E 007°00'510.8
2017-Oct-22 09:30N 63°05' E 006°49'610.8
2017-Oct-22 09:00N 63°02' E 006°38'611.1
2017-Oct-22 08:30N 62°60' E 006°27'611.4
2017-Oct-22 08:00N 62°57' E 006°16'611.8
2017-Oct-22 07:30N 62°53' E 006°07'611.4
2017-Oct-22 07:00N 62°49' E 005°59'611.1
2017-Oct-22 06:30N 62°45' E 005°50'611.4
2017-Oct-22 06:00N 62°41' E 005°41'611.3
2017-Oct-22 05:30N 62°37' E 005°33'611.1
2017-Oct-22 05:00N 62°33' E 005°24'611.3
2017-Oct-22 04:30N 62°29' E 005°15'611.1
2017-Oct-22 04:00N 62°25' E 005°06'611.4
2017-Oct-22 03:30N 62°21' E 004°58'611.1
2017-Oct-22 03:00N 62°17' E 004°50'510.7
2017-Oct-22 02:30N 62°13' E 004°42'510.6
2017-Oct-22 02:00N 62°10' E 004°34'49410.4
2017-Oct-20 02:31N 53°56' E 005°02'110.3
2017-Oct-20 02:28N 53°55' E 005°01'510.5
2017-Oct-20 01:59N 53°50' E 004°58'510.5
2017-Oct-20 01:29N 53°45' E 004°55'510.4
2017-Oct-20 01:00N 53°41' E 004°52'5310.1
2017-Oct-19 19:47N 52°53' E 004°15'310.1
2017-Oct-19 19:30N 52°50' E 004°13'510.2
2017-Oct-19 19:00N 52°45' E 004°09'510.3
2017-Oct-19 18:30N 52°41' E 004°05'610.7
2017-Oct-19 17:54N 52°36' E 003°59'411.2
2017-Oct-19 17:30N 52°32' E 003°56'1611.3
2017-Oct-19 16:05N 52°16' E 003°53'211.6
2017-Oct-19 15:55N 52°14' E 003°54'511.5
2017-Oct-19 15:30N 52°09' E 003°55'612.2
2017-Oct-19 15:00N 52°03' E 003°55'4 8.9
2017-Oct-19 14:30N 52°00' E 004°01'510.7
2017-Oct-19 14:00N 51°58' E 004°09'4 8.6
2017-Oct-19 13:30N 51°55' E 004°14'4 8.3
2017-Oct-19 13:00N 51°54' E 004°20'5 9.3
2017-Oct-19 12:30N 51°54' E 004°28'2 3.4
2017-Oct-19 12:00N 51°55' E 004°30'0 0.0
2017-Oct-19 11:29N 51°55' E 004°30'1 2.4
2017-Oct-19 11:01N 51°54' E 004°31'2 3.4
2017-Oct-19 10:29N 51°54' E 004°34'0 0.0
2017-Oct-19 09:59N 51°54' E 004°34'0 0.0
2017-Oct-19 09:29N 51°54' E 004°34'0 0.0
2017-Oct-19 08:59N 51°54' E 004°34'0 0.0
2017-Oct-19 08:29N 51°54' E 004°34'0 0.0
2017-Oct-19 07:59N 51°54' E 004°34'0 0.0
2017-Oct-19 07:29N 51°54' E 004°34'0 0.0
2017-Oct-19 06:59N 51°54' E 004°34'0 0.0
2017-Oct-19 06:29N 51°54' E 004°34'0 0.0
2017-Oct-19 05:59N 51°54' E 004°34'0 0.0
2017-Oct-19 05:29N 51°54' E 004°34'0 0.0
2017-Oct-19 04:58N 51°54' E 004°34'0 0.0
2017-Oct-19 04:28N 51°54' E 004°34'0 0.0
2017-Oct-19 03:58N 51°54' E 004°34'0 0.0
2017-Oct-19 03:28N 51°54' E 004°34'0 0.0
2017-Oct-19 02:58N 51°54' E 004°34'0 0.0
2017-Oct-19 02:28N 51°54' E 004°34'0 0.0
2017-Oct-19 01:58N 51°54' E 004°34'0 0.0
2017-Oct-19 01:28N 51°54' E 004°34'0 0.0
2017-Oct-19 00:58N 51°54' E 004°34'0 0.0
2017-Oct-19 00:28N 51°54' E 004°34'0 0.0
2017-Oct-18 23:58N 51°54' E 004°34'0 0.0
2017-Oct-18 23:28N 51°54' E 004°34'0 0.0
2017-Oct-18 22:58N 51°54' E 004°34'0 0.0
2017-Oct-18 22:28N 51°54' E 004°34'0 0.0
2017-Oct-18 21:58N 51°54' E 004°34'0 0.0
2017-Oct-18 21:28N 51°54' E 004°34'0 0.0
2017-Oct-18 20:58N 51°54' E 004°34'0 0.0
2017-Oct-18 20:28N 51°54' E 004°34'0 0.0
2017-Oct-18 19:58N 51°54' E 004°34'0 0.0
2017-Oct-18 19:28N 51°54' E 004°34'0 0.0
2017-Oct-18 18:58N 51°54' E 004°34'0 0.0
2017-Oct-18 18:28N 51°54' E 004°34'0 0.0
2017-Oct-18 17:58N 51°54' E 004°34'0 0.0
2017-Oct-18 17:28N 51°54' E 004°34'0 0.0
2017-Oct-18 16:58N 51°54' E 004°34'0 0.0
2017-Oct-18 16:28N 51°54' E 004°34'0 0.0
2017-Oct-18 15:58N 51°54' E 004°34'0 0.0
2017-Oct-18 15:28N 51°54' E 004°34'0 0.0
2017-Oct-18 14:58N 51°54' E 004°34'0 0.0
2017-Oct-18 13:58N 51°54' E 004°34'0 0.0
2017-Oct-18 13:28N 51°54' E 004°34'0 0.0
2017-Oct-18 12:58N 51°54' E 004°34'0 0.0
2017-Oct-18 12:28N 51°54' E 004°34'0 0.0
2017-Oct-18 11:58N 51°54' E 004°34'0 0.0
2017-Oct-18 11:28N 51°54' E 004°34'0 0.0
2017-Oct-18 10:58N 51°54' E 004°34'0 0.0
2017-Oct-18 10:28N 51°54' E 004°34'0 0.0
2017-Oct-18 09:58N 51°54' E 004°34'0 0.0
2017-Oct-18 09:28N 51°54' E 004°34'0 0.0
2017-Oct-18 08:58N 51°54' E 004°34'0 0.0
2017-Oct-18 08:28N 51°54' E 004°34'0 0.0
2017-Oct-18 07:58N 51°54' E 004°34'0 0.0
2017-Oct-18 07:28N 51°54' E 004°34'0 0.0
2017-Oct-18 06:58N 51°54' E 004°34'0 0.0
2017-Oct-18 06:28N 51°54' E 004°34'0 0.0
2017-Oct-18 05:58N 51°54' E 004°34'0 0.0
2017-Oct-18 05:28N 51°54' E 004°34'0 0.0
2017-Oct-18 04:58N 51°54' E 004°34'0 0.0
2017-Oct-18 04:28N 51°54' E 004°34'0 0.0
2017-Oct-18 03:58N 51°54' E 004°34'0 0.0
2017-Oct-18 03:28N 51°54' E 004°34'0 0.0
2017-Oct-18 02:58N 51°54' E 004°34'0 0.0
2017-Oct-18 02:28N 51°54' E 004°34'0 0.0
2017-Oct-18 01:58N 51°54' E 004°34'0 0.0
2017-Oct-18 01:28N 51°54' E 004°34'0 0.0
2017-Oct-18 00:58N 51°54' E 004°34'0 0.0
2017-Oct-18 00:28N 51°54' E 004°34'0 0.0
2017-Oct-17 23:58N 51°54' E 004°34'0 0.0
2017-Oct-17 23:28N 51°54' E 004°34'0 0.0
2017-Oct-17 22:58N 51°54' E 004°34'0 0.0
2017-Oct-17 22:28N 51°54' E 004°34'0 0.0
2017-Oct-17 21:58N 51°54' E 004°34'0 0.0
2017-Oct-17 21:31N 51°54' E 004°34'0 0.0
2017-Oct-17 21:00N 51°54' E 004°34'0 0.0
2017-Oct-17 20:30N 51°54' E 004°34'0 0.0
2017-Oct-17 20:00N 51°54' E 004°34'0 0.0
2017-Oct-17 19:30N 51°54' E 004°34'0 0.0
2017-Oct-17 19:00N 51°54' E 004°34'0 0.0
2017-Oct-17 18:30N 51°54' E 004°34'0 0.0
2017-Oct-17 18:00N 51°54' E 004°34'0 0.0
2017-Oct-17 17:30N 51°54' E 004°34'0 0.0
2017-Oct-17 17:00N 51°54' E 004°34'0 0.0
2017-Oct-17 16:30N 51°54' E 004°34'0 0.0
2017-Oct-17 16:00N 51°54' E 004°34'0 0.0
2017-Oct-17 15:30N 51°54' E 004°34'0 0.0
2017-Oct-17 15:00N 51°54' E 004°34'0 0.0
2017-Oct-17 14:30N 51°54' E 004°34'0 0.0
2017-Oct-17 14:00N 51°54' E 004°34'0 0.0
2017-Oct-17 13:30N 51°54' E 004°34'0 0.0
2017-Oct-17 13:00N 51°54' E 004°34'0 0.0
2017-Oct-17 12:30N 51°54' E 004°34'0 0.0
2017-Oct-17 12:00N 51°54' E 004°34'0 0.0
2017-Oct-17 11:30N 51°54' E 004°34'0 0.0
2017-Oct-17 11:00N 51°54' E 004°34'0 0.0
2017-Oct-17 10:30N 51°54' E 004°34'0 0.0
2017-Oct-17 10:00N 51°54' E 004°34'0 0.0
2017-Oct-17 09:30N 51°54' E 004°34'0 0.0
2017-Oct-17 09:00N 51°54' E 004°34'0 0.0
2017-Oct-17 08:30N 51°54' E 004°34'0 0.0
2017-Oct-17 08:00N 51°54' E 004°34'0 0.0
2017-Oct-17 07:30N 51°54' E 004°34'0 0.0
2017-Oct-17 07:00N 51°54' E 004°34'0 0.0
2017-Oct-17 06:30N 51°54' E 004°34'0 0.0
2017-Oct-17 06:00N 51°54' E 004°34'0 0.0
2017-Oct-17 05:30N 51°54' E 004°34'0 0.0
2017-Oct-17 05:00N 51°54' E 004°34'0 0.0
2017-Oct-17 04:30N 51°54' E 004°34'0 0.0
2017-Oct-17 04:00N 51°54' E 004°34'0 0.0
2017-Oct-17 03:30N 51°54' E 004°34'0 0.0
2017-Oct-17 03:00N 51°54' E 004°34'0 0.0
2017-Oct-17 02:30N 51°54' E 004°34'0 0.0
2017-Oct-17 02:00N 51°54' E 004°34'0 0.0
2017-Oct-17 01:30N 51°54' E 004°34'0 0.0
2017-Oct-17 01:00N 51°54' E 004°34'0 0.0
2017-Oct-17 00:30N 51°54' E 004°34'0 0.0
2017-Oct-17 00:00N 51°54' E 004°34'0 0.0
2017-Oct-16 23:30N 51°54' E 004°34'0 0.0
2017-Oct-16 23:00N 51°54' E 004°34'0 0.0
2017-Oct-16 22:30N 51°54' E 004°34'0 0.0
2017-Oct-16 22:00N 51°54' E 004°34'0 0.0
2017-Oct-16 21:30N 51°54' E 004°34'0 0.0
2017-Oct-16 21:00N 51°54' E 004°34'0 0.0
2017-Oct-16 20:30N 51°54' E 004°34'0 0.0
2017-Oct-16 20:00N 51°54' E 004°34'0 0.0
2017-Oct-16 19:30N 51°54' E 004°34'0 0.0
2017-Oct-16 19:00N 51°54' E 004°34'0 0.0
2017-Oct-16 18:30N 51°54' E 004°34'0 0.0
2017-Oct-16 18:00N 51°54' E 004°34'0 0.0
2017-Oct-16 17:30N 51°54' E 004°34'0 0.0
2017-Oct-16 17:00N 51°54' E 004°34'0 0.0
2017-Oct-16 16:30N 51°54' E 004°34'0 0.0
2017-Oct-16 16:00N 51°54' E 004°34'0 0.0
2017-Oct-16 15:30N 51°54' E 004°34'0 0.0
2017-Oct-16 15:00N 51°54' E 004°34'0 0.0
2017-Oct-16 14:00N 51°54' E 004°34'0 0.0
2017-Oct-16 13:30N 51°54' E 004°34'0 0.0
2017-Oct-16 13:00N 51°54' E 004°34'0 0.0
2017-Oct-16 12:30N 51°54' E 004°34'0 0.0
2017-Oct-16 11:59N 51°54' E 004°34'0 0.0
2017-Oct-16 11:29N 51°54' E 004°34'0 0.0
2017-Oct-16 10:59N 51°54' E 004°34'0 0.0
2017-Oct-16 10:29N 51°54' E 004°34'0 0.0
2017-Oct-16 09:59N 51°54' E 004°34'0 0.0
2017-Oct-16 09:29N 51°54' E 004°34'0 0.0
2017-Oct-16 08:59N 51°54' E 004°34'0 0.0
2017-Oct-16 08:29N 51°54' E 004°34'0 0.0
2017-Oct-16 07:59N 51°54' E 004°34'0 0.0
2017-Oct-16 07:29N 51°54' E 004°34'0 0.0
2017-Oct-16 06:59N 51°54' E 004°34'0 0.0
2017-Oct-16 06:29N 51°54' E 004°34'0 0.0
2017-Oct-16 05:59N 51°54' E 004°34'0 0.0
2017-Oct-16 05:29N 51°54' E 004°34'0 0.0
2017-Oct-16 04:59N 51°54' E 004°34'0 0.0
2017-Oct-16 04:29N 51°54' E 004°34'0 0.0
2017-Oct-16 03:59N 51°54' E 004°34'0 0.0
2017-Oct-16 03:29N 51°54' E 004°34'0 0.0
2017-Oct-16 02:59N 51°54' E 004°34'0 0.0
2017-Oct-16 02:29N 51°54' E 004°34'0 0.0
2017-Oct-16 01:59N 51°54' E 004°34'0 0.0
2017-Oct-16 01:29N 51°54' E 004°34'0 0.0
2017-Oct-16 00:59N 51°54' E 004°34'0 0.0
2017-Oct-16 00:29N 51°54' E 004°34'0 0.0
2017-Oct-15 23:59N 51°54' E 004°34'0 0.0
2017-Oct-15 23:29N 51°54' E 004°34'0 0.0
2017-Oct-15 22:59N 51°54' E 004°34'0 0.0
2017-Oct-15 22:29N 51°54' E 004°34'0 0.0
2017-Oct-15 21:59N 51°54' E 004°34'0 0.0
2017-Oct-15 21:29N 51°54' E 004°34'0 0.0
2017-Oct-15 20:59N 51°54' E 004°34'0 0.0
2017-Oct-15 20:29N 51°54' E 004°34'0 0.0
2017-Oct-15 19:59N 51°54' E 004°34'0 0.0
2017-Oct-15 19:29N 51°54' E 004°34'0 0.0
2017-Oct-15 18:59N 51°54' E 004°34'0 0.0
2017-Oct-15 18:29N 51°54' E 004°34'0 0.0
2017-Oct-15 17:59N 51°54' E 004°34'0 0.0
2017-Oct-15 17:29N 51°54' E 004°34'0 0.0
2017-Oct-15 16:59N 51°54' E 004°34'0 0.0
2017-Oct-15 16:29N 51°54' E 004°34'0 0.0
2017-Oct-15 15:59N 51°54' E 004°34'0 0.0
2017-Oct-15 15:29N 51°54' E 004°34'0 0.0
2017-Oct-15 14:59N 51°54' E 004°34'0 0.0
2017-Oct-15 13:59N 51°54' E 004°34'0 0.0
2017-Oct-15 13:29N 51°54' E 004°34'0 0.0
2017-Oct-15 12:59N 51°54' E 004°34'0 0.0
2017-Oct-15 12:29N 51°54' E 004°34'0 0.0
2017-Oct-15 11:59N 51°54' E 004°34'0 0.0
2017-Oct-15 11:29N 51°54' E 004°34'0 0.0
2017-Oct-15 10:59N 51°54' E 004°34'0 0.0
2017-Oct-15 10:29N 51°54' E 004°34'0 0.0
2017-Oct-15 09:59N 51°54' E 004°34'0 0.0
2017-Oct-15 09:29N 51°54' E 004°34'0 0.0
2017-Oct-15 08:59N 51°54' E 004°34'0 0.0
2017-Oct-15 08:29N 51°54' E 004°34'0 0.0
2017-Oct-15 07:59N 51°54' E 004°34'0 0.0
2017-Oct-15 07:29N 51°54' E 004°34'0 0.0
2017-Oct-15 06:59N 51°54' E 004°34'0 0.0
2017-Oct-15 06:29N 51°54' E 004°34'0 0.0
2017-Oct-15 05:59N 51°54' E 004°34'0 0.0
2017-Oct-15 05:29N 51°54' E 004°34'0 0.0
2017-Oct-15 04:59N 51°54' E 004°34'0 0.0
2017-Oct-15 04:29N 51°54' E 004°34'0 0.0
2017-Oct-15 03:59N 51°54' E 004°34'0 0.0
2017-Oct-15 03:28N 51°54' E 004°34'0 0.0
2017-Oct-15 02:58N 51°54' E 004°34'0 0.0
2017-Oct-15 02:28N 51°54' E 004°34'0 0.0
2017-Oct-15 01:58N 51°54' E 004°34'0 0.0
2017-Oct-15 01:28N 51°54' E 004°34'0 0.0
2017-Oct-15 00:58N 51°54' E 004°34'0 0.0
2017-Oct-15 00:28N 51°54' E 004°34'0 0.0
2017-Oct-14 23:58N 51°54' E 004°34'0 0.0
2017-Oct-14 23:28N 51°54' E 004°34'0 0.0
2017-Oct-14 22:58N 51°54' E 004°34'0 0.0
2017-Oct-14 22:28N 51°54' E 004°34'0 0.0
2017-Oct-14 21:58N 51°54' E 004°34'0 0.0
2017-Oct-14 21:28N 51°54' E 004°34'0 0.0
2017-Oct-14 20:58N 51°54' E 004°34'0 0.0
2017-Oct-14 20:28N 51°54' E 004°34'0 0.0
2017-Oct-14 19:58N 51°54' E 004°34'0 0.0
2017-Oct-14 19:28N 51°54' E 004°34'0 0.0
2017-Oct-14 18:58N 51°54' E 004°34'0 0.0
2017-Oct-14 18:28N 51°54' E 004°34'0 0.0
2017-Oct-14 17:58N 51°54' E 004°34'0 0.0
2017-Oct-14 17:28N 51°54' E 004°34'0 0.0
2017-Oct-14 16:58N 51°54' E 004°34'0 0.0
2017-Oct-14 16:28N 51°54' E 004°34'0 0.0
2017-Oct-14 15:58N 51°54' E 004°34'0 0.0
2017-Oct-14 15:28N 51°54' E 004°34'0 0.3
2017-Oct-14 14:58N 51°54' E 004°35'0 0.1
2017-Oct-14 14:28N 51°54' E 004°35'0 0.0
2017-Oct-14 13:58N 51°54' E 004°35'0 0.0
2017-Oct-14 13:28N 51°54' E 004°35'0 0.0
2017-Oct-14 12:58N 51°54' E 004°35'0 0.0
2017-Oct-14 12:28N 51°54' E 004°35'0 0.0
2017-Oct-14 11:58N 51°54' E 004°35'0 0.0
2017-Oct-14 11:28N 51°54' E 004°35'0 0.0
2017-Oct-14 10:58N 51°54' E 004°35'0 0.0
2017-Oct-14 10:28N 51°54' E 004°35'0 0.0
2017-Oct-14 09:58N 51°54' E 004°35'0 0.0
2017-Oct-14 09:28N 51°54' E 004°35'0 0.0
2017-Oct-14 08:58N 51°54' E 004°35'0 0.0
2017-Oct-14 08:28N 51°54' E 004°35'0 0.0
2017-Oct-14 07:58N 51°54' E 004°35'0 0.0
2017-Oct-14 07:28N 51°54' E 004°35'0 0.0
2017-Oct-14 06:58N 51°54' E 004°35'0 0.0
2017-Oct-14 06:28N 51°54' E 004°35'0 0.0
2017-Oct-14 05:58N 51°54' E 004°35'0 0.0
2017-Oct-14 05:28N 51°54' E 004°35'0 0.0
2017-Oct-14 04:58N 51°54' E 004°35'0 0.0
2017-Oct-14 04:28N 51°54' E 004°35'0 0.0
2017-Oct-14 03:58N 51°54' E 004°35'0 0.0
2017-Oct-14 03:28N 51°54' E 004°35'0 0.0
2017-Oct-14 02:58N 51°54' E 004°35'0 0.0
2017-Oct-14 02:28N 51°54' E 004°35'0 0.0
2017-Oct-14 01:58N 51°54' E 004°35'0 0.0
2017-Oct-14 01:28N 51°54' E 004°35'0 0.0
2017-Oct-14 00:58N 51°54' E 004°35'0 0.0
2017-Oct-14 00:28N 51°54' E 004°35'0 0.0
2017-Oct-13 23:58N 51°54' E 004°35'0 0.0
2017-Oct-13 23:28N 51°54' E 004°35'0 0.0
2017-Oct-13 22:58N 51°54' E 004°35'0 0.0
2017-Oct-13 22:28N 51°54' E 004°35'0 0.0
2017-Oct-13 21:58N 51°54' E 004°35'0 0.0
2017-Oct-13 21:28N 51°54' E 004°35'0 0.0
2017-Oct-13 21:01N 51°54' E 004°35'0 0.0
2017-Oct-13 20:31N 51°54' E 004°35'0 0.0
2017-Oct-13 20:01N 51°54' E 004°35'0 0.0
2017-Oct-13 19:30N 51°54' E 004°35'0 0.0
2017-Oct-13 19:00N 51°54' E 004°35'0 0.0
2017-Oct-13 18:30N 51°54' E 004°35'0 0.0
2017-Oct-13 18:00N 51°54' E 004°35'0 0.0
2017-Oct-13 17:30N 51°54' E 004°35'0 0.0
2017-Oct-13 17:00N 51°54' E 004°35'0 0.0
2017-Oct-13 16:30N 51°54' E 004°35'0 0.0
2017-Oct-13 16:00N 51°54' E 004°35'0 0.0
2017-Oct-13 15:30N 51°54' E 004°35'0 0.0
2017-Oct-13 15:00N 51°54' E 004°35'0 0.0
2017-Oct-13 14:30N 51°54' E 004°35'0 0.0
2017-Oct-13 14:00N 51°54' E 004°35'0 0.0
2017-Oct-13 13:30N 51°54' E 004°35'0 0.0
2017-Oct-13 13:00N 51°54' E 004°35'1 1.8
2017-Oct-13 12:30N 51°54' E 004°33'2 3.2
2017-Oct-13 12:00N 51°55' E 004°31'1 2.3
2017-Oct-13 11:30N 51°54' E 004°29'1 2.8
2017-Oct-13 11:00N 51°54' E 004°27'3 5.8
2017-Oct-13 10:30N 51°54' E 004°22'3 6.7
2017-Oct-13 10:00N 51°54' E 004°17'3 6.8
2017-Oct-13 09:30N 51°56' E 004°12'4 7.4
2017-Oct-13 09:00N 51°58' E 004°08'4 8.6
2017-Oct-13 08:30N 51°60' E 004°01'510.9
2017-Oct-13 08:00N 52°00' E 003°52'611.1
2017-Oct-13 07:30N 51°59' E 003°43'2211.8
2017-Oct-13 05:37N 51°52' E 003°09'411.5
2017-Oct-13 05:19N 51°51' E 003°04'2310.3
2017-Oct-13 03:04N 51°40' E 002°31'11 9.6
2017-Oct-13 01:57N 51°32' E 002°20'4 9.0
2017-Oct-13 01:30N 51°28' E 002°16'5 9.3
2017-Oct-13 01:00N 51°24' E 002°12'5 9.2
2017-Oct-13 00:30N 51°20' E 002°09'5 9.3
2017-Oct-13 00:00N 51°16' E 002°06'4 8.9
2017-Oct-12 23:30N 51°13' E 002°00'5 9.2
2017-Oct-12 23:00N 51°10' E 001°54'5 9.2
2017-Oct-12 22:30N 51°08' E 001°49'  
Track history (hours):
 
Tides and Currents Weather Stations Pressure Air Temp Water Temp Dewpoint Dewpoint Depression Visibility Wind Speed Wind Dir Waves Ship Positions

Fluvius Axe

Last reported at 2017-Oct-22 22:28 UTC. Time now 2017-Oct-22 22:56 UTC.
Position N 63°01' E 007°48'.

Length 88 m; draft 3.2 m.

Type: Cargo ship. MMSI: 311000201.

Date/timePositionNaut miles runAvg speedWind from/ knotsBaromVisibWave heightAir tempDewpointWater temp
2017-Oct-22 22:28N 63°01' E 007°48'0 0.0
2017-Oct-22 21:58N 63°01' E 007°48'0 0.0
2017-Oct-22 21:28N 63°01' E 007°48'0 0.0
2017-Oct-22 20:58N 63°01' E 007°48'0 0.1
2017-Oct-22 20:28N 63°01' E 007°48'0 0.0
2017-Oct-22 19:58N 63°01' E 007°48'0 0.2
2017-Oct-22 19:28N 63°01' E 007°48'0 0.0
2017-Oct-22 18:58N 63°01' E 007°48'0 0.0
2017-Oct-22 18:28N 63°01' E 007°48'0 0.0
2017-Oct-22 17:58N 63°01' E 007°48'0 0.0
2017-Oct-22 17:28N 63°01' E 007°48'0 0.0
2017-Oct-22 16:58N 63°01' E 007°48'0 0.0
2017-Oct-22 16:28N 63°01' E 007°48'0 0.0
2017-Oct-22 15:58N 63°01' E 007°48'0 0.0
2017-Oct-22 15:28N 63°01' E 007°48'0 0.0
2017-Oct-22 14:58N 63°01' E 007°48'0 0.0
2017-Oct-22 14:28N 63°01' E 007°48'0 0.2
2017-Oct-22 13:58N 63°01' E 007°48'1 2.9
2017-Oct-22 13:30N 63°02' E 007°51'5 9.6
2017-Oct-22 13:00N 63°06' E 007°55'5 9.6
2017-Oct-22 12:30N 63°10' E 007°48'5 9.2
2017-Oct-22 12:00N 63°14' E 007°43'5 9.7
2017-Oct-22 11:30N 63°14' E 007°32'510.7
2017-Oct-22 11:00N 63°12' E 007°22'611.0
2017-Oct-22 10:30N 63°10' E 007°10'611.0
2017-Oct-22 10:00N 63°07' E 007°00'510.8
2017-Oct-22 09:30N 63°05' E 006°49'610.8
2017-Oct-22 09:00N 63°02' E 006°38'611.1
2017-Oct-22 08:30N 62°60' E 006°27'611.4
2017-Oct-22 08:00N 62°57' E 006°16'611.8
2017-Oct-22 07:30N 62°53' E 006°07'611.4
2017-Oct-22 07:00N 62°49' E 005°59'611.1
2017-Oct-22 06:30N 62°45' E 005°50'611.4
2017-Oct-22 06:00N 62°41' E 005°41'611.3
2017-Oct-22 05:30N 62°37' E 005°33'611.1
2017-Oct-22 05:00N 62°33' E 005°24'611.3
2017-Oct-22 04:30N 62°29' E 005°15'611.1
2017-Oct-22 04:00N 62°25' E 005°06'611.4
2017-Oct-22 03:30N 62°21' E 004°58'611.1
2017-Oct-22 03:00N 62°17' E 004°50'510.7
2017-Oct-22 02:30N 62°13' E 004°42'510.6
2017-Oct-22 02:00N 62°10' E 004°34'49410.4
2017-Oct-20 02:31N 53°56' E 005°02'110.3
2017-Oct-20 02:28N 53°55' E 005°01'510.5
2017-Oct-20 01:59N 53°50' E 004°58'510.5
2017-Oct-20 01:29N 53°45' E 004°55'510.4
2017-Oct-20 01:00N 53°41' E 004°52'5310.1
2017-Oct-19 19:47N 52°53' E 004°15'310.1
2017-Oct-19 19:30N 52°50' E 004°13'510.2
2017-Oct-19 19:00N 52°45' E 004°09'510.3
2017-Oct-19 18:30N 52°41' E 004°05'610.7
2017-Oct-19 17:54N 52°36' E 003°59'411.2
2017-Oct-19 17:30N 52°32' E 003°56'1611.3
2017-Oct-19 16:05N 52°16' E 003°53'211.6
2017-Oct-19 15:55N 52°14' E 003°54'511.5
2017-Oct-19 15:30N 52°09' E 003°55'612.2
2017-Oct-19 15:00N 52°03' E 003°55'4 8.9
2017-Oct-19 14:30N 52°00' E 004°01'510.7
2017-Oct-19 14:00N 51°58' E 004°09'4 8.6
2017-Oct-19 13:30N 51°55' E 004°14'4 8.3
2017-Oct-19 13:00N 51°54' E 004°20'5 9.3
2017-Oct-19 12:30N 51°54' E 004°28'2 3.4
2017-Oct-19 12:00N 51°55' E 004°30'0 0.0
2017-Oct-19 11:29N 51°55' E 004°30'1 2.4
2017-Oct-19 11:01N 51°54' E 004°31'2 3.4
2017-Oct-19 10:29N 51°54' E 004°34'0 0.0
2017-Oct-19 09:59N 51°54' E 004°34'0 0.0
2017-Oct-19 09:29N 51°54' E 004°34'0 0.0
2017-Oct-19 08:59N 51°54' E 004°34'0 0.0
2017-Oct-19 08:29N 51°54' E 004°34'0 0.0
2017-Oct-19 07:59N 51°54' E 004°34'0 0.0
2017-Oct-19 07:29N 51°54' E 004°34'0 0.0
2017-Oct-19 06:59N 51°54' E 004°34'0 0.0
2017-Oct-19 06:29N 51°54' E 004°34'0 0.0
2017-Oct-19 05:59N 51°54' E 004°34'0 0.0
2017-Oct-19 05:29N 51°54' E 004°34'0 0.0
2017-Oct-19 04:58N 51°54' E 004°34'0 0.0
2017-Oct-19 04:28N 51°54' E 004°34'0 0.0
2017-Oct-19 03:58N 51°54' E 004°34'0 0.0
2017-Oct-19 03:28N 51°54' E 004°34'0 0.0
2017-Oct-19 02:58N 51°54' E 004°34'0 0.0
2017-Oct-19 02:28N 51°54' E 004°34'0 0.0
2017-Oct-19 01:58N 51°54' E 004°34'0 0.0
2017-Oct-19 01:28N 51°54' E 004°34'0 0.0
2017-Oct-19 00:58N 51°54' E 004°34'0 0.0
2017-Oct-19 00:28N 51°54' E 004°34'0 0.0
2017-Oct-18 23:58N 51°54' E 004°34'0 0.0
2017-Oct-18 23:28N 51°54' E 004°34'0 0.0
2017-Oct-18 22:58N 51°54' E 004°34'0 0.0
2017-Oct-18 22:28N 51°54' E 004°34'0 0.0
2017-Oct-18 21:58N 51°54' E 004°34'0 0.0
2017-Oct-18 21:28N 51°54' E 004°34'0 0.0
2017-Oct-18 20:58N 51°54' E 004°34'0 0.0
2017-Oct-18 20:28N 51°54' E 004°34'0 0.0
2017-Oct-18 19:58N 51°54' E 004°34'0 0.0
2017-Oct-18 19:28N 51°54' E 004°34'0 0.0
2017-Oct-18 18:58N 51°54' E 004°34'0 0.0
2017-Oct-18 18:28N 51°54' E 004°34'0 0.0
2017-Oct-18 17:58N 51°54' E 004°34'0 0.0
2017-Oct-18 17:28N 51°54' E 004°34'0 0.0
2017-Oct-18 16:58N 51°54' E 004°34'0 0.0
2017-Oct-18 16:28N 51°54' E 004°34'0 0.0
2017-Oct-18 15:58N 51°54' E 004°34'0 0.0
2017-Oct-18 15:28N 51°54' E 004°34'0 0.0
2017-Oct-18 14:58N 51°54' E 004°34'0 0.0
2017-Oct-18 13:58N 51°54' E 004°34'0 0.0
2017-Oct-18 13:28N 51°54' E 004°34'0 0.0
2017-Oct-18 12:58N 51°54' E 004°34'0 0.0
2017-Oct-18 12:28N 51°54' E 004°34'0 0.0
2017-Oct-18 11:58N 51°54' E 004°34'0 0.0
2017-Oct-18 11:28N 51°54' E 004°34'0 0.0
2017-Oct-18 10:58N 51°54' E 004°34'0 0.0
2017-Oct-18 10:28N 51°54' E 004°34'0 0.0
2017-Oct-18 09:58N 51°54' E 004°34'0 0.0
2017-Oct-18 09:28N 51°54' E 004°34'0 0.0
2017-Oct-18 08:58N 51°54' E 004°34'0 0.0
2017-Oct-18 08:28N 51°54' E 004°34'0 0.0
2017-Oct-18 07:58N 51°54' E 004°34'0 0.0
2017-Oct-18 07:28N 51°54' E 004°34'0 0.0
2017-Oct-18 06:58N 51°54' E 004°34'0 0.0
2017-Oct-18 06:28N 51°54' E 004°34'0 0.0
2017-Oct-18 05:58N 51°54' E 004°34'0 0.0
2017-Oct-18 05:28N 51°54' E 004°34'0 0.0
2017-Oct-18 04:58N 51°54' E 004°34'0 0.0
2017-Oct-18 04:28N 51°54' E 004°34'0 0.0
2017-Oct-18 03:58N 51°54' E 004°34'0 0.0
2017-Oct-18 03:28N 51°54' E 004°34'0 0.0
2017-Oct-18 02:58N 51°54' E 004°34'0 0.0
2017-Oct-18 02:28N 51°54' E 004°34'0 0.0
2017-Oct-18 01:58N 51°54' E 004°34'0 0.0
2017-Oct-18 01:28N 51°54' E 004°34'0 0.0
2017-Oct-18 00:58N 51°54' E 004°34'0 0.0
2017-Oct-18 00:28N 51°54' E 004°34'0 0.0
2017-Oct-17 23:58N 51°54' E 004°34'0 0.0
2017-Oct-17 23:28N 51°54' E 004°34'0 0.0
2017-Oct-17 22:58N 51°54' E 004°34'0 0.0
2017-Oct-17 22:28N 51°54' E 004°34'0 0.0
2017-Oct-17 21:58N 51°54' E 004°34'0 0.0
2017-Oct-17 21:31N 51°54' E 004°34'0 0.0
2017-Oct-17 21:00N 51°54' E 004°34'0 0.0
2017-Oct-17 20:30N 51°54' E 004°34'0 0.0
2017-Oct-17 20:00N 51°54' E 004°34'0 0.0
2017-Oct-17 19:30N 51°54' E 004°34'0 0.0
2017-Oct-17 19:00N 51°54' E 004°34'0 0.0
2017-Oct-17 18:30N 51°54' E 004°34'0 0.0
2017-Oct-17 18:00N 51°54' E 004°34'0 0.0
2017-Oct-17 17:30N 51°54' E 004°34'0 0.0
2017-Oct-17 17:00N 51°54' E 004°34'0 0.0
2017-Oct-17 16:30N 51°54' E 004°34'0 0.0
2017-Oct-17 16:00N 51°54' E 004°34'0 0.0
2017-Oct-17 15:30N 51°54' E 004°34'0 0.0
2017-Oct-17 15:00N 51°54' E 004°34'0 0.0
2017-Oct-17 14:30N 51°54' E 004°34'0 0.0
2017-Oct-17 14:00N 51°54' E 004°34'0 0.0
2017-Oct-17 13:30N 51°54' E 004°34'0 0.0
2017-Oct-17 13:00N 51°54' E 004°34'0 0.0
2017-Oct-17 12:30N 51°54' E 004°34'0 0.0
2017-Oct-17 12:00N 51°54' E 004°34'0 0.0
2017-Oct-17 11:30N 51°54' E 004°34'0 0.0
2017-Oct-17 11:00N 51°54' E 004°34'0 0.0
2017-Oct-17 10:30N 51°54' E 004°34'0 0.0
2017-Oct-17 10:00N 51°54' E 004°34'0 0.0
2017-Oct-17 09:30N 51°54' E 004°34'0 0.0
2017-Oct-17 09:00N 51°54' E 004°34'0 0.0
2017-Oct-17 08:30N 51°54' E 004°34'0 0.0
2017-Oct-17 08:00N 51°54' E 004°34'0 0.0
2017-Oct-17 07:30N 51°54' E 004°34'0 0.0
2017-Oct-17 07:00N 51°54' E 004°34'0 0.0
2017-Oct-17 06:30N 51°54' E 004°34'0 0.0
2017-Oct-17 06:00N 51°54' E 004°34'0 0.0
2017-Oct-17 05:30N 51°54' E 004°34'0 0.0
2017-Oct-17 05:00N 51°54' E 004°34'0 0.0
2017-Oct-17 04:30N 51°54' E 004°34'0 0.0
2017-Oct-17 04:00N 51°54' E 004°34'0 0.0
2017-Oct-17 03:30N 51°54' E 004°34'0 0.0
2017-Oct-17 03:00N 51°54' E 004°34'0 0.0
2017-Oct-17 02:30N 51°54' E 004°34'0 0.0
2017-Oct-17 02:00N 51°54' E 004°34'0 0.0
2017-Oct-17 01:30N 51°54' E 004°34'0 0.0
2017-Oct-17 01:00N 51°54' E 004°34'0 0.0
2017-Oct-17 00:30N 51°54' E 004°34'0 0.0
2017-Oct-17 00:00N 51°54' E 004°34'0 0.0
2017-Oct-16 23:30N 51°54' E 004°34'0 0.0
2017-Oct-16 23:00N 51°54' E 004°34'0 0.0
2017-Oct-16 22:30N 51°54' E 004°34'0 0.0
2017-Oct-16 22:00N 51°54' E 004°34'0 0.0
2017-Oct-16 21:30N 51°54' E 004°34'0 0.0
2017-Oct-16 21:00N 51°54' E 004°34'0 0.0
2017-Oct-16 20:30N 51°54' E 004°34'0 0.0
2017-Oct-16 20:00N 51°54' E 004°34'0 0.0
2017-Oct-16 19:30N 51°54' E 004°34'0 0.0
2017-Oct-16 19:00N 51°54' E 004°34'0 0.0
2017-Oct-16 18:30N 51°54' E 004°34'0 0.0
2017-Oct-16 18:00N 51°54' E 004°34'0 0.0
2017-Oct-16 17:30N 51°54' E 004°34'0 0.0
2017-Oct-16 17:00N 51°54' E 004°34'0 0.0
2017-Oct-16 16:30N 51°54' E 004°34'0 0.0
2017-Oct-16 16:00N 51°54' E 004°34'0 0.0
2017-Oct-16 15:30N 51°54' E 004°34'0 0.0
2017-Oct-16 15:00N 51°54' E 004°34'0 0.0
2017-Oct-16 14:00N 51°54' E 004°34'0 0.0
2017-Oct-16 13:30N 51°54' E 004°34'0 0.0
2017-Oct-16 13:00N 51°54' E 004°34'0 0.0
2017-Oct-16 12:30N 51°54' E 004°34'0 0.0
2017-Oct-16 11:59N 51°54' E 004°34'0 0.0
2017-Oct-16 11:29N 51°54' E 004°34'0 0.0
2017-Oct-16 10:59N 51°54' E 004°34'0 0.0
2017-Oct-16 10:29N 51°54' E 004°34'0 0.0
2017-Oct-16 09:59N 51°54' E 004°34'0 0.0
2017-Oct-16 09:29N 51°54' E 004°34'0 0.0
2017-Oct-16 08:59N 51°54' E 004°34'0 0.0
2017-Oct-16 08:29N 51°54' E 004°34'0 0.0
2017-Oct-16 07:59N 51°54' E 004°34'0 0.0
2017-Oct-16 07:29N 51°54' E 004°34'0 0.0
2017-Oct-16 06:59N 51°54' E 004°34'0 0.0
2017-Oct-16 06:29N 51°54' E 004°34'0 0.0
2017-Oct-16 05:59N 51°54' E 004°34'0 0.0
2017-Oct-16 05:29N 51°54' E 004°34'0 0.0
2017-Oct-16 04:59N 51°54' E 004°34'0 0.0
2017-Oct-16 04:29N 51°54' E 004°34'0 0.0
2017-Oct-16 03:59N 51°54' E 004°34'0 0.0
2017-Oct-16 03:29N 51°54' E 004°34'0 0.0
2017-Oct-16 02:59N 51°54' E 004°34'0 0.0
2017-Oct-16 02:29N 51°54' E 004°34'0 0.0
2017-Oct-16 01:59N 51°54' E 004°34'0 0.0
2017-Oct-16 01:29N 51°54' E 004°34'0 0.0
2017-Oct-16 00:59N 51°54' E 004°34'0 0.0
2017-Oct-16 00:29N 51°54' E 004°34'0 0.0
2017-Oct-15 23:59N 51°54' E 004°34'0 0.0
2017-Oct-15 23:29N 51°54' E 004°34'0 0.0
2017-Oct-15 22:59N 51°54' E 004°34'0 0.0
2017-Oct-15 22:29N 51°54' E 004°34'0 0.0
2017-Oct-15 21:59N 51°54' E 004°34'0 0.0
2017-Oct-15 21:29N 51°54' E 004°34'0 0.0
2017-Oct-15 20:59N 51°54' E 004°34'0 0.0
2017-Oct-15 20:29N 51°54' E 004°34'0 0.0
2017-Oct-15 19:59N 51°54' E 004°34'0 0.0
2017-Oct-15 19:29N 51°54' E 004°34'0 0.0
2017-Oct-15 18:59N 51°54' E 004°34'0 0.0
2017-Oct-15 18:29N 51°54' E 004°34'0 0.0
2017-Oct-15 17:59N 51°54' E 004°34'0 0.0
2017-Oct-15 17:29N 51°54' E 004°34'0 0.0
2017-Oct-15 16:59N 51°54' E 004°34'0 0.0
2017-Oct-15 16:29N 51°54' E 004°34'0 0.0
2017-Oct-15 15:59N 51°54' E 004°34'0 0.0
2017-Oct-15 15:29N 51°54' E 004°34'0 0.0
2017-Oct-15 14:59N 51°54' E 004°34'0 0.0
2017-Oct-15 13:59N 51°54' E 004°34'0 0.0
2017-Oct-15 13:29N 51°54' E 004°34'0 0.0
2017-Oct-15 12:59N 51°54' E 004°34'0 0.0
2017-Oct-15 12:29N 51°54' E 004°34'0 0.0
2017-Oct-15 11:59N 51°54' E 004°34'0 0.0
2017-Oct-15 11:29N 51°54' E 004°34'0 0.0
2017-Oct-15 10:59N 51°54' E 004°34'0 0.0
2017-Oct-15 10:29N 51°54' E 004°34'0 0.0
2017-Oct-15 09:59N 51°54' E 004°34'0 0.0
2017-Oct-15 09:29N 51°54' E 004°34'0 0.0
2017-Oct-15 08:59N 51°54' E 004°34'0 0.0
2017-Oct-15 08:29N 51°54' E 004°34'0 0.0
2017-Oct-15 07:59N 51°54' E 004°34'0 0.0
2017-Oct-15 07:29N 51°54' E 004°34'0 0.0
2017-Oct-15 06:59N 51°54' E 004°34'0 0.0
2017-Oct-15 06:29N 51°54' E 004°34'0 0.0
2017-Oct-15 05:59N 51°54' E 004°34'0 0.0
2017-Oct-15 05:29N 51°54' E 004°34'0 0.0
2017-Oct-15 04:59N 51°54' E 004°34'0 0.0
2017-Oct-15 04:29N 51°54' E 004°34'0 0.0
2017-Oct-15 03:59N 51°54' E 004°34'0 0.0
2017-Oct-15 03:28N 51°54' E 004°34'0 0.0
2017-Oct-15 02:58N 51°54' E 004°34'0 0.0
2017-Oct-15 02:28N 51°54' E 004°34'0 0.0
2017-Oct-15 01:58N 51°54' E 004°34'0 0.0
2017-Oct-15 01:28N 51°54' E 004°34'0 0.0
2017-Oct-15 00:58N 51°54' E 004°34'0 0.0
2017-Oct-15 00:28N 51°54' E 004°34'0 0.0
2017-Oct-14 23:58N 51°54' E 004°34'0 0.0
2017-Oct-14 23:28N 51°54' E 004°34'0 0.0
2017-Oct-14 22:58N 51°54' E 004°34'0 0.0
2017-Oct-14 22:28N 51°54' E 004°34'0 0.0
2017-Oct-14 21:58N 51°54' E 004°34'0 0.0
2017-Oct-14 21:28N 51°54' E 004°34'0 0.0
2017-Oct-14 20:58N 51°54' E 004°34'0 0.0
2017-Oct-14 20:28N 51°54' E 004°34'0 0.0
2017-Oct-14 19:58N 51°54' E 004°34'0 0.0
2017-Oct-14 19:28N 51°54' E 004°34'0 0.0
2017-Oct-14 18:58N 51°54' E 004°34'0 0.0
2017-Oct-14 18:28N 51°54' E 004°34'0 0.0
2017-Oct-14 17:58N 51°54' E 004°34'0 0.0
2017-Oct-14 17:28N 51°54' E 004°34'0 0.0
2017-Oct-14 16:58N 51°54' E 004°34'0 0.0
2017-Oct-14 16:28N 51°54' E 004°34'0 0.0
2017-Oct-14 15:58N 51°54' E 004°34'0 0.0
2017-Oct-14 15:28N 51°54' E 004°34'0 0.3
2017-Oct-14 14:58N 51°54' E 004°35'0 0.1
2017-Oct-14 14:28N 51°54' E 004°35'0 0.0
2017-Oct-14 13:58N 51°54' E 004°35'0 0.0
2017-Oct-14 13:28N 51°54' E 004°35'0 0.0
2017-Oct-14 12:58N 51°54' E 004°35'0 0.0
2017-Oct-14 12:28N 51°54' E 004°35'0 0.0
2017-Oct-14 11:58N 51°54' E 004°35'0 0.0
2017-Oct-14 11:28N 51°54' E 004°35'0 0.0
2017-Oct-14 10:58N 51°54' E 004°35'0 0.0
2017-Oct-14 10:28N 51°54' E 004°35'0 0.0
2017-Oct-14 09:58N 51°54' E 004°35'0 0.0
2017-Oct-14 09:28N 51°54' E 004°35'0 0.0
2017-Oct-14 08:58N 51°54' E 004°35'0 0.0
2017-Oct-14 08:28N 51°54' E 004°35'0 0.0
2017-Oct-14 07:58N 51°54' E 004°35'0 0.0
2017-Oct-14 07:28N 51°54' E 004°35'0 0.0
2017-Oct-14 06:58N 51°54' E 004°35'0 0.0
2017-Oct-14 06:28N 51°54' E 004°35'0 0.0
2017-Oct-14 05:58N 51°54' E 004°35'0 0.0
2017-Oct-14 05:28N 51°54' E 004°35'0 0.0
2017-Oct-14 04:58N 51°54' E 004°35'0 0.0
2017-Oct-14 04:28N 51°54' E 004°35'0 0.0
2017-Oct-14 03:58N 51°54' E 004°35'0 0.0
2017-Oct-14 03:28N 51°54' E 004°35'0 0.0
2017-Oct-14 02:58N 51°54' E 004°35'0 0.0
2017-Oct-14 02:28N 51°54' E 004°35'0 0.0
2017-Oct-14 01:58N 51°54' E 004°35'0 0.0
2017-Oct-14 01:28N 51°54' E 004°35'0 0.0
2017-Oct-14 00:58N 51°54' E 004°35'0 0.0
2017-Oct-14 00:28N 51°54' E 004°35'0 0.0
2017-Oct-13 23:58N 51°54' E 004°35'0 0.0
2017-Oct-13 23:28N 51°54' E 004°35'0 0.0
2017-Oct-13 22:58N 51°54' E 004°35'0 0.0
2017-Oct-13 22:28N 51°54' E 004°35'0 0.0
2017-Oct-13 21:58N 51°54' E 004°35'0 0.0
2017-Oct-13 21:28N 51°54' E 004°35'0 0.0
2017-Oct-13 21:01N 51°54' E 004°35'0 0.0
2017-Oct-13 20:31N 51°54' E 004°35'0 0.0
2017-Oct-13 20:01N 51°54' E 004°35'0 0.0
2017-Oct-13 19:30N 51°54' E 004°35'0 0.0
2017-Oct-13 19:00N 51°54' E 004°35'0 0.0
2017-Oct-13 18:30N 51°54' E 004°35'0 0.0
2017-Oct-13 18:00N 51°54' E 004°35'0 0.0
2017-Oct-13 17:30N 51°54' E 004°35'0 0.0
2017-Oct-13 17:00N 51°54' E 004°35'0 0.0
2017-Oct-13 16:30N 51°54' E 004°35'0 0.0
2017-Oct-13 16:00N 51°54' E 004°35'0 0.0
2017-Oct-13 15:30N 51°54' E 004°35'0 0.0
2017-Oct-13 15:00N 51°54' E 004°35'0 0.0
2017-Oct-13 14:30N 51°54' E 004°35'0 0.0
2017-Oct-13 14:00N 51°54' E 004°35'0 0.0
2017-Oct-13 13:30N 51°54' E 004°35'0 0.0
2017-Oct-13 13:00N 51°54' E 004°35'1 1.8
2017-Oct-13 12:30N 51°54' E 004°33'2 3.2
2017-Oct-13 12:00N 51°55' E 004°31'1 2.3
2017-Oct-13 11:30N 51°54' E 004°29'1 2.8
2017-Oct-13 11:00N 51°54' E 004°27'3 5.8
2017-Oct-13 10:30N 51°54' E 004°22'3 6.7
2017-Oct-13 10:00N 51°54' E 004°17'3 6.8
2017-Oct-13 09:30N 51°56' E 004°12'4 7.4
2017-Oct-13 09:00N 51°58' E 004°08'4 8.6
2017-Oct-13 08:30N 51°60' E 004°01'510.9
2017-Oct-13 08:00N 52°00' E 003°52'611.1
2017-Oct-13 07:30N 51°59' E 003°43'2211.8
2017-Oct-13 05:37N 51°52' E 003°09'411.5
2017-Oct-13 05:19N 51°51' E 003°04'2310.3
2017-Oct-13 03:04N 51°40' E 002°31'11 9.6
2017-Oct-13 01:57N 51°32' E 002°20'4 9.0
2017-Oct-13 01:30N 51°28' E 002°16'5 9.3
2017-Oct-13 01:00N 51°24' E 002°12'5 9.2
2017-Oct-13 00:30N 51°20' E 002°09'5 9.3
2017-Oct-13 00:00N 51°16' E 002°06'4 8.9
2017-Oct-12 23:30N 51°13' E 002°00'5 9.2
2017-Oct-12 23:00N 51°10' E 001°54'5 9.2
2017-Oct-12 22:30N 51°08' E 001°49'  

Dump ship's entire track history